sensor_id;sensor_type;location;lat;lon;timestamp;temperature;humidity
26164;DHT22;13914;48.178;11.716;2023-04-25T00:01:17;7.50;34.00
26164;DHT22;13914;48.178;11.716;2023-04-25T00:03:44;7.50;34.10
26164;DHT22;13914;48.178;11.716;2023-04-25T00:06:12;7.50;34.30
26164;DHT22;13914;48.178;11.716;2023-04-25T00:08:38;7.50;34.10
26164;DHT22;13914;48.178;11.716;2023-04-25T00:11:04;7.50;33.90
26164;DHT22;13914;48.178;11.716;2023-04-25T00:13:29;7.50;33.70
26164;DHT22;13914;48.178;11.716;2023-04-25T00:15:55;7.40;33.80
26164;DHT22;13914;48.178;11.716;2023-04-25T00:18:24;7.50;34.30
26164;DHT22;13914;48.178;11.716;2023-04-25T00:20:49;7.50;34.30
26164;DHT22;13914;48.178;11.716;2023-04-25T00:23:16;7.40;34.20
26164;DHT22;13914;48.178;11.716;2023-04-25T00:25:52;7.40;34.30
26164;DHT22;13914;48.178;11.716;2023-04-25T00:28:18;7.40;33.90
26164;DHT22;13914;48.178;11.716;2023-04-25T00:30:43;7.40;34.40
26164;DHT22;13914;48.178;11.716;2023-04-25T00:33:09;7.40;34.40
26164;DHT22;13914;48.178;11.716;2023-04-25T00:35:35;7.40;34.40
26164;DHT22;13914;48.178;11.716;2023-04-25T00:38:01;7.40;34.60
26164;DHT22;13914;48.178;11.716;2023-04-25T00:40:26;7.40;34.40
26164;DHT22;13914;48.178;11.716;2023-04-25T00:42:53;7.40;34.40
26164;DHT22;13914;48.178;11.716;2023-04-25T00:45:19;7.40;34.60
26164;DHT22;13914;48.178;11.716;2023-04-25T00:47:45;7.40;34.50
26164;DHT22;13914;48.178;11.716;2023-04-25T00:50:11;7.40;34.70
26164;DHT22;13914;48.178;11.716;2023-04-25T00:52:37;7.40;34.60
26164;DHT22;13914;48.178;11.716;2023-04-25T00:55:06;7.40;34.70
26164;DHT22;13914;48.178;11.716;2023-04-25T00:57:32;7.30;35.00
26164;DHT22;13914;48.178;11.716;2023-04-25T00:59:58;7.40;35.00
26164;DHT22;13914;48.178;11.716;2023-04-25T01:02:24;7.40;34.90
26164;DHT22;13914;48.178;11.716;2023-04-25T01:04:51;7.30;34.80
26164;DHT22;13914;48.178;11.716;2023-04-25T01:07:16;7.30;34.60
26164;DHT22;13914;48.178;11.716;2023-04-25T01:09:42;7.40;34.80
26164;DHT22;13914;48.178;11.716;2023-04-25T01:12:08;7.40;34.90
26164;DHT22;13914;48.178;11.716;2023-04-25T01:44:01;7.20;35.00
26164;DHT22;13914;48.178;11.716;2023-04-25T01:46:27;7.20;35.00
26164;DHT22;13914;48.178;11.716;2023-04-25T01:48:53;7.30;35.00
26164;DHT22;13914;48.178;11.716;2023-04-25T01:51:18;7.20;34.90
26164;DHT22;13914;48.178;11.716;2023-04-25T01:53:44;7.20;35.50
26164;DHT22;13914;48.178;11.716;2023-04-25T01:56:10;7.20;34.80
26164;DHT22;13914;48.178;11.716;2023-04-25T01:58:36;7.20;34.90
26164;DHT22;13914;48.178;11.716;2023-04-25T02:01:01;7.20;34.80
26164;DHT22;13914;48.178;11.716;2023-04-25T02:03:29;7.20;34.30
26164;DHT22;13914;48.178;11.716;2023-04-25T02:05:56;7.20;34.30
26164;DHT22;13914;48.178;11.716;2023-04-25T02:08:22;7.20;34.60
26164;DHT22;13914;48.178;11.716;2023-04-25T02:10:47;7.10;34.50
26164;DHT22;13914;48.178;11.716;2023-04-25T02:13:13;7.10;34.50
26164;DHT22;13914;48.178;11.716;2023-04-25T02:15:39;7.10;34.90
26164;DHT22;13914;48.178;11.716;2023-04-25T02:18:04;7.10;34.60
26164;DHT22;13914;48.178;11.716;2023-04-25T02:20:31;7.10;34.80
26164;DHT22;13914;48.178;11.716;2023-04-25T02:22:57;7.10;34.90
26164;DHT22;13914;48.178;11.716;2023-04-25T02:25:22;7.10;34.80
26164;DHT22;13914;48.178;11.716;2023-04-25T02:27:48;7.10;34.80
26164;DHT22;13914;48.178;11.716;2023-04-25T02:30:14;7.00;34.80
26164;DHT22;13914;48.178;11.716;2023-04-25T02:32:40;7.00;34.90
26164;DHT22;13914;48.178;11.716;2023-04-25T02:35:06;7.00;35.00
26164;DHT22;13914;48.178;11.716;2023-04-25T02:37:33;7.00;35.00
26164;DHT22;13914;48.178;11.716;2023-04-25T02:40:00;7.00;35.10
26164;DHT22;13914;48.178;11.716;2023-04-25T02:42:26;7.00;35.10
26164;DHT22;13914;48.178;11.716;2023-04-25T02:44:52;7.00;34.70
26164;DHT22;13914;48.178;11.716;2023-04-25T02:47:18;7.00;35.00
26164;DHT22;13914;48.178;11.716;2023-04-25T02:49:43;6.90;35.00
26164;DHT22;13914;48.178;11.716;2023-04-25T02:52:10;6.90;35.00
26164;DHT22;13914;48.178;11.716;2023-04-25T02:54:36;6.90;35.10
26164;DHT22;13914;48.178;11.716;2023-04-25T02:57:02;6.90;35.10
26164;DHT22;13914;48.178;11.716;2023-04-25T02:59:28;6.90;35.00
26164;DHT22;13914;48.178;11.716;2023-04-25T03:01:53;6.80;34.90
26164;DHT22;13914;48.178;11.716;2023-04-25T03:04:19;6.80;35.10
26164;DHT22;13914;48.178;11.716;2023-04-25T03:06:46;6.80;35.00
26164;DHT22;13914;48.178;11.716;2023-04-25T03:09:12;6.80;35.10
26164;DHT22;13914;48.178;11.716;2023-04-25T03:11:40;6.80;35.10
26164;DHT22;13914;48.178;11.716;2023-04-25T03:14:06;6.80;35.20
26164;DHT22;13914;48.178;11.716;2023-04-25T03:16:32;6.80;35.50
26164;DHT22;13914;48.178;11.716;2023-04-25T03:18:58;6.80;35.40
26164;DHT22;13914;48.178;11.716;2023-04-25T03:21:23;6.80;35.40
26164;DHT22;13914;48.178;11.716;2023-04-25T03:23:49;6.80;36.30
26164;DHT22;13914;48.178;11.716;2023-04-25T03:26:15;6.80;35.40
26164;DHT22;13914;48.178;11.716;2023-04-25T03:28:41;6.80;35.90
26164;DHT22;13914;48.178;11.716;2023-04-25T03:31:07;6.80;36.40
26164;DHT22;13914;48.178;11.716;2023-04-25T03:33:32;6.70;36.10
26164;DHT22;13914;48.178;11.716;2023-04-25T03:35:58;6.80;36.60
26164;DHT22;13914;48.178;11.716;2023-04-25T03:38:24;6.80;36.80
26164;DHT22;13914;48.178;11.716;2023-04-25T03:40:51;6.80;36.70
26164;DHT22;13914;48.178;11.716;2023-04-25T03:43:18;6.80;36.20
26164;DHT22;13914;48.178;11.716;2023-04-25T03:45:43;6.80;37.70
26164;DHT22;13914;48.178;11.716;2023-04-25T03:48:09;6.80;37.30
26164;DHT22;13914;48.178;11.716;2023-04-25T03:50:35;6.80;36.80
26164;DHT22;13914;48.178;11.716;2023-04-25T03:53:01;6.80;37.30
26164;DHT22;13914;48.178;11.716;2023-04-25T03:55:26;6.80;37.10
26164;DHT22;13914;48.178;11.716;2023-04-25T03:57:52;6.90;36.90
26164;DHT22;13914;48.178;11.716;2023-04-25T04:00:18;6.80;37.20
26164;DHT22;13914;48.178;11.716;2023-04-25T04:02:43;6.90;37.30
26164;DHT22;13914;48.178;11.716;2023-04-25T04:05:09;6.80;37.10
26164;DHT22;13914;48.178;11.716;2023-04-25T04:07:34;6.80;37.20
26164;DHT22;13914;48.178;11.716;2023-04-25T04:10:07;6.80;36.80
26164;DHT22;13914;48.178;11.716;2023-04-25T04:12:36;6.80;36.70
26164;DHT22;13914;48.178;11.716;2023-04-25T04:15:05;6.80;36.90
26164;DHT22;13914;48.178;11.716;2023-04-25T04:17:31;6.90;36.40
26164;DHT22;13914;48.178;11.716;2023-04-25T04:19:57;6.90;36.50
26164;DHT22;13914;48.178;11.716;2023-04-25T04:22:23;6.80;36.50
26164;DHT22;13914;48.178;11.716;2023-04-25T04:24:49;6.90;36.50
26164;DHT22;13914;48.178;11.716;2023-04-25T04:27:18;6.90;36.80
26164;DHT22;13914;48.178;11.716;2023-04-25T04:29:45;6.90;36.80
26164;DHT22;13914;48.178;11.716;2023-04-25T04:32:11;6.90;36.40
26164;DHT22;13914;48.178;11.716;2023-04-25T04:34:38;6.90;36.20
26164;DHT22;13914;48.178;11.716;2023-04-25T04:37:05;6.90;36.30
26164;DHT22;13914;48.178;11.716;2023-04-25T04:39:32;6.90;36.20
26164;DHT22;13914;48.178;11.716;2023-04-25T04:41:59;6.90;35.80
26164;DHT22;13914;48.178;11.716;2023-04-25T04:44:26;6.90;35.80
26164;DHT22;13914;48.178;11.716;2023-04-25T04:46:53;6.90;36.10
26164;DHT22;13914;48.178;11.716;2023-04-25T04:49:20;6.90;36.60
26164;DHT22;13914;48.178;11.716;2023-04-25T04:51:46;6.90;36.00
26164;DHT22;13914;48.178;11.716;2023-04-25T04:54:12;6.90;36.70
26164;DHT22;13914;48.178;11.716;2023-04-25T04:56:38;6.90;36.40
26164;DHT22;13914;48.178;11.716;2023-04-25T04:59:03;7.00;37.00
26164;DHT22;13914;48.178;11.716;2023-04-25T05:01:29;7.00;36.70
26164;DHT22;13914;48.178;11.716;2023-04-25T05:03:58;7.00;36.10
26164;DHT22;13914;48.178;11.716;2023-04-25T05:06:27;7.00;36.10
26164;DHT22;13914;48.178;11.716;2023-04-25T05:08:54;7.00;36.50
26164;DHT22;13914;48.178;11.716;2023-04-25T05:11:21;7.10;36.60
26164;DHT22;13914;48.178;11.716;2023-04-25T05:13:47;7.10;36.60
26164;DHT22;13914;48.178;11.716;2023-04-25T05:16:13;7.10;36.30
26164;DHT22;13914;48.178;11.716;2023-04-25T05:18:39;7.10;36.30
26164;DHT22;13914;48.178;11.716;2023-04-25T05:21:05;7.10;36.00
26164;DHT22;13914;48.178;11.716;2023-04-25T05:23:31;7.10;36.30
26164;DHT22;13914;48.178;11.716;2023-04-25T05:25:57;7.10;36.30
26164;DHT22;13914;48.178;11.716;2023-04-25T05:28:23;7.10;36.00
26164;DHT22;13914;48.178;11.716;2023-04-25T05:30:49;7.10;36.20
26164;DHT22;13914;48.178;11.716;2023-04-25T05:33:15;7.10;36.60
26164;DHT22;13914;48.178;11.716;2023-04-25T05:35:42;7.20;36.60
26164;DHT22;13914;48.178;11.716;2023-04-25T05:38:07;7.10;36.40
26164;DHT22;13914;48.178;11.716;2023-04-25T05:40:33;7.10;37.50
26164;DHT22;13914;48.178;11.716;2023-04-25T05:42:59;7.20;36.30
26164;DHT22;13914;48.178;11.716;2023-04-25T05:45:24;7.20;36.30
26164;DHT22;13914;48.178;11.716;2023-04-25T05:47:50;7.20;36.50
26164;DHT22;13914;48.178;11.716;2023-04-25T05:50:16;7.20;36.70
26164;DHT22;13914;48.178;11.716;2023-04-25T05:52:42;7.20;37.30
26164;DHT22;13914;48.178;11.716;2023-04-25T05:55:07;7.20;37.20
26164;DHT22;13914;48.178;11.716;2023-04-25T05:57:34;7.20;37.40
26164;DHT22;13914;48.178;11.716;2023-04-25T06:00:00;7.20;37.10
26164;DHT22;13914;48.178;11.716;2023-04-25T06:02:25;7.30;37.20
26164;DHT22;13914;48.178;11.716;2023-04-25T06:04:51;7.30;37.40
26164;DHT22;13914;48.178;11.716;2023-04-25T06:07:18;7.30;37.20
26164;DHT22;13914;48.178;11.716;2023-04-25T06:09:44;7.30;37.10
26164;DHT22;13914;48.178;11.716;2023-04-25T06:12:10;7.30;36.90
26164;DHT22;13914;48.178;11.716;2023-04-25T06:14:35;7.30;37.90
26164;DHT22;13914;48.178;11.716;2023-04-25T06:17:02;7.40;37.30
26164;DHT22;13914;48.178;11.716;2023-04-25T06:19:32;7.40;38.20
26164;DHT22;13914;48.178;11.716;2023-04-25T06:21:58;7.40;38.40
26164;DHT22;13914;48.178;11.716;2023-04-25T06:24:24;7.40;39.00
26164;DHT22;13914;48.178;11.716;2023-04-25T06:26:50;7.40;38.90
26164;DHT22;13914;48.178;11.716;2023-04-25T06:29:15;7.40;38.30
26164;DHT22;13914;48.178;11.716;2023-04-25T06:31:41;7.40;38.00
26164;DHT22;13914;48.178;11.716;2023-04-25T06:34:07;7.40;38.60
26164;DHT22;13914;48.178;11.716;2023-04-25T06:36:32;7.50;38.00
26164;DHT22;13914;48.178;11.716;2023-04-25T06:38:58;7.50;38.60
26164;DHT22;13914;48.178;11.716;2023-04-25T06:41:24;7.50;38.20
26164;DHT22;13914;48.178;11.716;2023-04-25T06:43:49;7.50;38.20
26164;DHT22;13914;48.178;11.716;2023-04-25T06:46:15;7.50;38.90
26164;DHT22;13914;48.178;11.716;2023-04-25T06:48:41;7.50;38.20
26164;DHT22;13914;48.178;11.716;2023-04-25T06:51:07;7.50;38.20
26164;DHT22;13914;48.178;11.716;2023-04-25T06:53:32;7.60;38.30
26164;DHT22;13914;48.178;11.716;2023-04-25T06:55:58;7.60;38.30
26164;DHT22;13914;48.178;11.716;2023-04-25T06:58:24;7.60;39.50
26164;DHT22;13914;48.178;11.716;2023-04-25T07:00:49;7.60;39.80
26164;DHT22;13914;48.178;11.716;2023-04-25T07:03:15;7.70;40.50
26164;DHT22;13914;48.178;11.716;2023-04-25T07:05:41;7.70;40.50
26164;DHT22;13914;48.178;11.716;2023-04-25T07:08:06;7.70;40.80
26164;DHT22;13914;48.178;11.716;2023-04-25T07:10:32;7.70;40.10
26164;DHT22;13914;48.178;11.716;2023-04-25T07:12:58;7.70;40.10
26164;DHT22;13914;48.178;11.716;2023-04-25T07:15:23;7.80;39.80
26164;DHT22;13914;48.178;11.716;2023-04-25T07:17:49;7.80;39.60
26164;DHT22;13914;48.178;11.716;2023-04-25T07:20:15;7.90;39.60
26164;DHT22;13914;48.178;11.716;2023-04-25T07:22:41;8.00;40.10
26164;DHT22;13914;48.178;11.716;2023-04-25T07:25:07;8.00;40.10
26164;DHT22;13914;48.178;11.716;2023-04-25T07:27:33;8.10;39.80
26164;DHT22;13914;48.178;11.716;2023-04-25T07:29:59;8.10;40.40
26164;DHT22;13914;48.178;11.716;2023-04-25T07:32:26;8.20;40.60
26164;DHT22;13914;48.178;11.716;2023-04-25T07:34:53;8.20;41.50
26164;DHT22;13914;48.178;11.716;2023-04-25T07:37:19;8.20;41.00
26164;DHT22;13914;48.178;11.716;2023-04-25T07:39:44;8.30;41.00
26164;DHT22;13914;48.178;11.716;2023-04-25T07:42:13;8.30;40.50
26164;DHT22;13914;48.178;11.716;2023-04-25T07:44:39;8.40;40.20
26164;DHT22;13914;48.178;11.716;2023-04-25T07:47:05;8.40;40.00
26164;DHT22;13914;48.178;11.716;2023-04-25T07:49:34;8.50;39.60
26164;DHT22;13914;48.178;11.716;2023-04-25T07:52:01;8.50;39.30
26164;DHT22;13914;48.178;11.716;2023-04-25T07:54:27;8.60;39.40
26164;DHT22;13914;48.178;11.716;2023-04-25T07:56:53;8.60;39.50
26164;DHT22;13914;48.178;11.716;2023-04-25T07:59:19;8.70;39.40
26164;DHT22;13914;48.178;11.716;2023-04-25T08:01:45;8.80;39.20
26164;DHT22;13914;48.178;11.716;2023-04-25T08:04:10;8.80;39.40
26164;DHT22;13914;48.178;11.716;2023-04-25T08:06:36;8.80;39.70
26164;DHT22;13914;48.178;11.716;2023-04-25T08:09:02;9.00;39.60
26164;DHT22;13914;48.178;11.716;2023-04-25T08:11:28;9.00;39.70
26164;DHT22;13914;48.178;11.716;2023-04-25T08:13:54;9.10;39.80
26164;DHT22;13914;48.178;11.716;2023-04-25T08:16:20;9.20;39.70
26164;DHT22;13914;48.178;11.716;2023-04-25T08:18:45;9.30;39.50
26164;DHT22;13914;48.178;11.716;2023-04-25T08:21:11;9.50;39.10
26164;DHT22;13914;48.178;11.716;2023-04-25T08:23:38;9.50;39.40
26164;DHT22;13914;48.178;11.716;2023-04-25T08:26:03;9.70;39.40
26164;DHT22;13914;48.178;11.716;2023-04-25T08:28:30;9.80;39.30
26164;DHT22;13914;48.178;11.716;2023-04-25T08:30:56;9.80;39.10
26164;DHT22;13914;48.178;11.716;2023-04-25T08:33:22;9.90;39.00
26164;DHT22;13914;48.178;11.716;2023-04-25T08:35:48;10.00;38.90
26164;DHT22;13914;48.178;11.716;2023-04-25T08:38:13;10.10;38.10
26164;DHT22;13914;48.178;11.716;2023-04-25T08:40:39;10.20;38.40
26164;DHT22;13914;48.178;11.716;2023-04-25T08:43:06;10.30;38.20
26164;DHT22;13914;48.178;11.716;2023-04-25T08:45:40;10.40;38.30
26164;DHT22;13914;48.178;11.716;2023-04-25T08:48:13;10.50;38.50
26164;DHT22;13914;48.178;11.716;2023-04-25T08:50:49;10.60;38.00
26164;DHT22;13914;48.178;11.716;2023-04-25T08:53:21;10.70;37.10
26164;DHT22;13914;48.178;11.716;2023-04-25T08:55:50;10.80;37.40
26164;DHT22;13914;48.178;11.716;2023-04-25T08:58:18;10.80;37.40
26164;DHT22;13914;48.178;11.716;2023-04-25T09:00:45;10.90;37.30
26164;DHT22;13914;48.178;11.716;2023-04-25T09:03:12;10.90;37.30
26164;DHT22;13914;48.178;11.716;2023-04-25T09:05:39;11.00;36.90
26164;DHT22;13914;48.178;11.716;2023-04-25T09:08:05;11.00;35.60
26164;DHT22;13914;48.178;11.716;2023-04-25T09:10:31;11.10;35.80
26164;DHT22;13914;48.178;11.716;2023-04-25T09:13:07;11.10;34.70
26164;DHT22;13914;48.178;11.716;2023-04-25T09:15:48;11.10;35.20
26164;DHT22;13914;48.178;11.716;2023-04-25T09:18:28;11.30;34.10
26164;DHT22;13914;48.178;11.716;2023-04-25T09:20:55;11.30;34.10
26164;DHT22;13914;48.178;11.716;2023-04-25T09:23:22;11.40;33.40
26164;DHT22;13914;48.178;11.716;2023-04-25T09:25:49;11.50;33.90
26164;DHT22;13914;48.178;11.716;2023-04-25T09:28:16;11.60;34.20
26164;DHT22;13914;48.178;11.716;2023-04-25T09:30:42;11.70;32.90
26164;DHT22;13914;48.178;11.716;2023-04-25T09:33:10;11.80;33.10
26164;DHT22;13914;48.178;11.716;2023-04-25T09:35:37;12.00;32.50
26164;DHT22;13914;48.178;11.716;2023-04-25T09:38:22;12.00;32.20
26164;DHT22;13914;48.178;11.716;2023-04-25T09:40:47;12.20;32.70
26164;DHT22;13914;48.178;11.716;2023-04-25T09:43:21;12.30;32.50
26164;DHT22;13914;48.178;11.716;2023-04-25T09:45:48;12.40;32.80
26164;DHT22;13914;48.178;11.716;2023-04-25T09:48:21;12.40;31.60
26164;DHT22;13914;48.178;11.716;2023-04-25T09:53:37;12.70;31.40
26164;DHT22;13914;48.178;11.716;2023-04-25T09:56:04;12.80;29.80
26164;DHT22;13914;48.178;11.716;2023-04-25T09:58:34;12.80;29.90
26164;DHT22;13914;48.178;11.716;2023-04-25T10:01:02;12.90;29.40
26164;DHT22;13914;48.178;11.716;2023-04-25T10:03:29;12.90;28.90
26164;DHT22;13914;48.178;11.716;2023-04-25T10:06:00;12.90;28.40
26164;DHT22;13914;48.178;11.716;2023-04-25T10:08:29;13.00;28.40
26164;DHT22;13914;48.178;11.716;2023-04-25T10:10:59;13.00;28.00
26164;DHT22;13914;48.178;11.716;2023-04-25T10:13:26;13.20;29.10
26164;DHT22;13914;48.178;11.716;2023-04-25T10:15:53;13.30;29.20
26164;DHT22;13914;48.178;11.716;2023-04-25T10:18:19;13.40;28.90
26164;DHT22;13914;48.178;11.716;2023-04-25T10:20:45;13.60;28.70
26164;DHT22;13914;48.178;11.716;2023-04-25T10:23:12;13.60;27.90
26164;DHT22;13914;48.178;11.716;2023-04-25T10:25:40;13.70;29.40
26164;DHT22;13914;48.178;11.716;2023-04-25T10:28:06;13.80;29.50
26164;DHT22;13914;48.178;11.716;2023-04-25T10:30:32;13.90;27.60
26164;DHT22;13914;48.178;11.716;2023-04-25T10:32:58;13.90;27.00
26164;DHT22;13914;48.178;11.716;2023-04-25T10:35:27;13.80;26.80
26164;DHT22;13914;48.178;11.716;2023-04-25T10:38:11;13.80;27.30
26164;DHT22;13914;48.178;11.716;2023-04-25T10:40:39;13.90;27.80
26164;DHT22;13914;48.178;11.716;2023-04-25T10:45:59;14.00;26.70
26164;DHT22;13914;48.178;11.716;2023-04-25T10:48:26;14.00;26.70
26164;DHT22;13914;48.178;11.716;2023-04-25T10:51:11;14.00;26.00
26164;DHT22;13914;48.178;11.716;2023-04-25T10:53:37;14.00;25.90
26164;DHT22;13914;48.178;11.716;2023-04-25T10:56:19;14.00;27.00
26164;DHT22;13914;48.178;11.716;2023-04-25T10:58:46;13.90;26.30
26164;DHT22;13914;48.178;11.716;2023-04-25T11:01:19;13.90;26.80
26164;DHT22;13914;48.178;11.716;2023-04-25T11:03:46;13.90;27.00
26164;DHT22;13914;48.178;11.716;2023-04-25T11:08:47;13.60;27.20
26164;DHT22;13914;48.178;11.716;2023-04-25T11:11:15;13.50;27.30
26164;DHT22;13914;48.178;11.716;2023-04-25T11:13:42;13.60;28.50
26164;DHT22;13914;48.178;11.716;2023-04-25T11:16:07;13.50;28.80
26164;DHT22;13914;48.178;11.716;2023-04-25T11:18:33;13.40;29.10
26164;DHT22;13914;48.178;11.716;2023-04-25T11:20:59;13.40;29.60
26164;DHT22;13914;48.178;11.716;2023-04-25T11:23:25;13.30;29.90
26164;DHT22;13914;48.178;11.716;2023-04-25T11:25:52;13.30;29.70
26164;DHT22;13914;48.178;11.716;2023-04-25T11:28:21;13.30;29.90
26164;DHT22;13914;48.178;11.716;2023-04-25T11:30:50;13.10;30.00
26164;DHT22;13914;48.178;11.716;2023-04-25T11:33:16;13.00;30.30
26164;DHT22;13914;48.178;11.716;2023-04-25T11:35:42;12.80;30.60
26164;DHT22;13914;48.178;11.716;2023-04-25T11:38:08;12.80;30.70
26164;DHT22;13914;48.178;11.716;2023-04-25T11:40:35;12.70;31.30
26164;DHT22;13914;48.178;11.716;2023-04-25T11:43:01;12.80;31.50
26164;DHT22;13914;48.178;11.716;2023-04-25T11:45:27;12.80;31.40
26164;DHT22;13914;48.178;11.716;2023-04-25T11:47:54;12.80;31.40
26164;DHT22;13914;48.178;11.716;2023-04-25T11:50:20;12.80;30.80
26164;DHT22;13914;48.178;11.716;2023-04-25T11:52:46;12.70;30.80
26164;DHT22;13914;48.178;11.716;2023-04-25T11:55:13;12.60;30.60
26164;DHT22;13914;48.178;11.716;2023-04-25T11:57:40;12.60;30.80
26164;DHT22;13914;48.178;11.716;2023-04-25T12:02:52;12.40;31.00
26164;DHT22;13914;48.178;11.716;2023-04-25T12:05:19;12.40;31.00
26164;DHT22;13914;48.178;11.716;2023-04-25T12:07:46;12.30;31.10
26164;DHT22;13914;48.178;11.716;2023-04-25T12:10:12;12.20;31.20
26164;DHT22;13914;48.178;11.716;2023-04-25T12:12:43;12.20;32.00
26164;DHT22;13914;48.178;11.716;2023-04-25T12:15:14;12.10;31.90
26164;DHT22;13914;48.178;11.716;2023-04-25T12:17:46;12.10;31.70
26164;DHT22;13914;48.178;11.716;2023-04-25T12:20:13;12.10;31.80
26164;DHT22;13914;48.178;11.716;2023-04-25T12:22:40;12.00;32.00
26164;DHT22;13914;48.178;11.716;2023-04-25T12:25:12;12.00;31.90
26164;DHT22;13914;48.178;11.716;2023-04-25T12:28:08;12.00;32.60
26164;DHT22;13914;48.178;11.716;2023-04-25T12:33:19;11.90;32.80
26164;DHT22;13914;48.178;11.716;2023-04-25T12:35:44;11.80;32.90
26164;DHT22;13914;48.178;11.716;2023-04-25T12:38:10;11.80;33.10
26164;DHT22;13914;48.178;11.716;2023-04-25T12:40:36;11.70;33.60
26164;DHT22;13914;48.178;11.716;2023-04-25T12:43:02;11.70;33.80
26164;DHT22;13914;48.178;11.716;2023-04-25T12:45:28;11.60;33.60
26164;DHT22;13914;48.178;11.716;2023-04-25T12:47:53;11.50;33.70
26164;DHT22;13914;48.178;11.716;2023-04-25T12:50:19;11.40;34.20
26164;DHT22;13914;48.178;11.716;2023-04-25T12:52:45;11.50;34.20
26164;DHT22;13914;48.178;11.716;2023-04-25T12:55:11;11.50;34.00
26164;DHT22;13914;48.178;11.716;2023-04-25T12:57:36;11.50;33.60
26164;DHT22;13914;48.178;11.716;2023-04-25T13:00:02;11.50;33.70
26164;DHT22;13914;48.178;11.716;2023-04-25T13:02:29;11.40;33.60
26164;DHT22;13914;48.178;11.716;2023-04-25T13:04:55;11.30;33.60
26164;DHT22;13914;48.178;11.716;2023-04-25T13:07:20;11.30;33.80
26164;DHT22;13914;48.178;11.716;2023-04-25T13:09:46;11.20;34.10
26164;DHT22;13914;48.178;11.716;2023-04-25T13:12:12;11.20;34.10
26164;DHT22;13914;48.178;11.716;2023-04-25T13:14:37;11.20;34.20
26164;DHT22;13914;48.178;11.716;2023-04-25T13:17:03;11.10;34.60
26164;DHT22;13914;48.178;11.716;2023-04-25T13:19:29;10.90;35.00
26164;DHT22;13914;48.178;11.716;2023-04-25T13:21:54;10.90;35.50
26164;DHT22;13914;48.178;11.716;2023-04-25T13:24:20;10.80;35.60
26164;DHT22;13914;48.178;11.716;2023-04-25T13:26:46;10.80;35.50
26164;DHT22;13914;48.178;11.716;2023-04-25T13:29:11;10.80;35.60
26164;DHT22;13914;48.178;11.716;2023-04-25T13:31:37;10.80;35.70
26164;DHT22;13914;48.178;11.716;2023-04-25T13:34:03;10.70;35.80
26164;DHT22;13914;48.178;11.716;2023-04-25T13:36:28;10.60;36.00
26164;DHT22;13914;48.178;11.716;2023-04-25T13:38:54;10.60;36.00
26164;DHT22;13914;48.178;11.716;2023-04-25T13:41:20;10.50;36.30
26164;DHT22;13914;48.178;11.716;2023-04-25T13:43:46;10.40;36.20
26164;DHT22;13914;48.178;11.716;2023-04-25T13:46:12;10.40;36.20
26164;DHT22;13914;48.178;11.716;2023-04-25T13:48:39;10.40;36.10
26164;DHT22;13914;48.178;11.716;2023-04-25T13:51:04;10.30;37.00
26164;DHT22;13914;48.178;11.716;2023-04-25T13:53:30;10.20;36.40
26164;DHT22;13914;48.178;11.716;2023-04-25T13:55:56;10.20;36.30
26164;DHT22;13914;48.178;11.716;2023-04-25T13:58:21;10.30;36.40
26164;DHT22;13914;48.178;11.716;2023-04-25T14:00:47;10.20;35.90
26164;DHT22;13914;48.178;11.716;2023-04-25T14:03:13;10.30;36.30
26164;DHT22;13914;48.178;11.716;2023-04-25T14:05:39;10.20;36.20
26164;DHT22;13914;48.178;11.716;2023-04-25T14:08:08;10.20;36.10
26164;DHT22;13914;48.178;11.716;2023-04-25T14:10:35;10.20;35.70
26164;DHT22;13914;48.178;11.716;2023-04-25T14:13:01;10.20;35.70
26164;DHT22;13914;48.178;11.716;2023-04-25T14:15:28;10.20;36.20
26164;DHT22;13914;48.178;11.716;2023-04-25T14:17:55;10.10;35.30
26164;DHT22;13914;48.178;11.716;2023-04-25T14:20:21;10.10;35.70
26164;DHT22;13914;48.178;11.716;2023-04-25T14:22:49;10.00;35.50
26164;DHT22;13914;48.178;11.716;2023-04-25T14:25:15;10.00;35.60
26164;DHT22;13914;48.178;11.716;2023-04-25T14:27:40;10.00;35.40
26164;DHT22;13914;48.178;11.716;2023-04-25T14:30:06;10.00;35.90
26164;DHT22;13914;48.178;11.716;2023-04-25T14:32:34;10.00;35.90
26164;DHT22;13914;48.178;11.716;2023-04-25T14:35:00;10.00;35.70
26164;DHT22;13914;48.178;11.716;2023-04-25T14:37:25;10.00;35.70
26164;DHT22;13914;48.178;11.716;2023-04-25T14:39:51;10.00;36.10
26164;DHT22;13914;48.178;11.716;2023-04-25T14:42:17;9.90;35.70
26164;DHT22;13914;48.178;11.716;2023-04-25T14:44:42;9.90;35.80
26164;DHT22;13914;48.178;11.716;2023-04-25T14:47:08;9.90;35.70
26164;DHT22;13914;48.178;11.716;2023-04-25T14:49:34;9.90;36.20
26164;DHT22;13914;48.178;11.716;2023-04-25T14:51:59;9.90;36.20
26164;DHT22;13914;48.178;11.716;2023-04-25T14:54:26;9.90;36.50
26164;DHT22;13914;48.178;11.716;2023-04-25T14:56:52;9.90;36.60
26164;DHT22;13914;48.178;11.716;2023-04-25T14:59:17;9.90;36.50
26164;DHT22;13914;48.178;11.716;2023-04-25T15:01:43;9.90;36.50
26164;DHT22;13914;48.178;11.716;2023-04-25T15:04:09;9.90;37.30
26164;DHT22;13914;48.178;11.716;2023-04-25T15:06:36;9.90;36.70
26164;DHT22;13914;48.178;11.716;2023-04-25T15:09:01;9.90;38.30
26164;DHT22;13914;48.178;11.716;2023-04-25T15:11:27;9.90;37.10
26164;DHT22;13914;48.178;11.716;2023-04-25T15:13:53;9.90;37.30
26164;DHT22;13914;48.178;11.716;2023-04-25T15:16:18;9.90;36.80
26164;DHT22;13914;48.178;11.716;2023-04-25T15:18:44;10.00;37.40
26164;DHT22;13914;48.178;11.716;2023-04-25T15:21:10;9.90;38.10
26164;DHT22;13914;48.178;11.716;2023-04-25T15:23:36;9.90;37.70
26164;DHT22;13914;48.178;11.716;2023-04-25T15:26:01;9.90;37.00
26164;DHT22;13914;48.178;11.716;2023-04-25T15:28:27;9.90;37.10
26164;DHT22;13914;48.178;11.716;2023-04-25T15:30:53;10.00;36.90
26164;DHT22;13914;48.178;11.716;2023-04-25T15:33:19;9.90;37.20
26164;DHT22;13914;48.178;11.716;2023-04-25T15:35:44;9.90;37.70
26164;DHT22;13914;48.178;11.716;2023-04-25T15:38:10;9.90;39.00
26164;DHT22;13914;48.178;11.716;2023-04-25T15:40:36;9.80;38.40
26164;DHT22;13914;48.178;11.716;2023-04-25T15:43:02;9.80;38.10
26164;DHT22;13914;48.178;11.716;2023-04-25T15:45:28;9.80;38.00
26164;DHT22;13914;48.178;11.716;2023-04-25T15:47:55;9.80;38.30
26164;DHT22;13914;48.178;11.716;2023-04-25T15:50:21;9.80;38.50
26164;DHT22;13914;48.178;11.716;2023-04-25T15:52:48;9.80;38.20
26164;DHT22;13914;48.178;11.716;2023-04-25T15:55:14;9.70;38.50
26164;DHT22;13914;48.178;11.716;2023-04-25T15:57:41;9.80;38.30
26164;DHT22;13914;48.178;11.716;2023-04-25T16:00:08;9.80;38.40
26164;DHT22;13914;48.178;11.716;2023-04-25T16:02:42;9.70;38.30
26164;DHT22;13914;48.178;11.716;2023-04-25T16:05:08;9.80;38.50